sensor_id;sensor_type;location;lat;lon;timestamp;temperature;humidity
38488;DHT22;57384;51.986;4.458;2023-02-28T00:02:27;3.50;71.60
38488;DHT22;57384;51.986;4.458;2023-02-28T00:05:13;3.50;71.60
38488;DHT22;57384;51.986;4.458;2023-02-28T00:07:57;3.50;71.60
38488;DHT22;57384;51.986;4.458;2023-02-28T00:10:44;3.50;71.60
38488;DHT22;57384;51.986;4.458;2023-02-28T00:13:29;3.50;71.60
38488;DHT22;57384;51.986;4.458;2023-02-28T00:16:14;3.50;71.60
38488;DHT22;57384;51.986;4.458;2023-02-28T00:18:59;3.50;71.60
38488;DHT22;57384;51.986;4.458;2023-02-28T00:21:43;3.50;71.60
38488;DHT22;57384;51.986;4.458;2023-02-28T00:24:27;3.50;71.60
38488;DHT22;57384;51.986;4.458;2023-02-28T00:27:11;3.50;71.60
38488;DHT22;57384;51.986;4.458;2023-02-28T00:29:57;3.50;71.60
38488;DHT22;57384;51.986;4.458;2023-02-28T00:32:41;3.50;71.60
38488;DHT22;57384;51.986;4.458;2023-02-28T00:35:25;3.50;71.60
38488;DHT22;57384;51.986;4.458;2023-02-28T00:38:12;3.50;71.60
38488;DHT22;57384;51.986;4.458;2023-02-28T00:40:56;3.50;71.60
38488;DHT22;57384;51.986;4.458;2023-02-28T00:43:40;3.50;71.50
38488;DHT22;57384;51.986;4.458;2023-02-28T00:46:25;3.50;71.50
38488;DHT22;57384;51.986;4.458;2023-02-28T00:49:11;3.50;71.50
38488;DHT22;57384;51.986;4.458;2023-02-28T00:51:56;3.60;71.60
38488;DHT22;57384;51.986;4.458;2023-02-28T00:54:40;3.50;71.50
38488;DHT22;57384;51.986;4.458;2023-02-28T00:57:26;3.60;71.50
38488;DHT22;57384;51.986;4.458;2023-02-28T01:00:11;3.60;71.50
38488;DHT22;57384;51.986;4.458;2023-02-28T01:02:55;3.60;71.50
38488;DHT22;57384;51.986;4.458;2023-02-28T01:05:39;3.60;71.40
38488;DHT22;57384;51.986;4.458;2023-02-28T01:08:24;3.60;71.50
38488;DHT22;57384;51.986;4.458;2023-02-28T01:11:13;3.60;71.40
38488;DHT22;57384;51.986;4.458;2023-02-28T01:13:58;3.60;71.40
38488;DHT22;57384;51.986;4.458;2023-02-28T01:16:42;3.60;71.40
38488;DHT22;57384;51.986;4.458;2023-02-28T01:19:27;3.70;71.50
38488;DHT22;57384;51.986;4.458;2023-02-28T01:22:11;3.70;71.50
38488;DHT22;57384;51.986;4.458;2023-02-28T01:24:57;3.70;71.50
38488;DHT22;57384;51.986;4.458;2023-02-28T01:27:42;3.70;71.50
38488;DHT22;57384;51.986;4.458;2023-02-28T01:30:32;3.80;71.50
38488;DHT22;57384;51.986;4.458;2023-02-28T01:33:16;3.70;71.40
38488;DHT22;57384;51.986;4.458;2023-02-28T01:36:03;3.70;71.40
38488;DHT22;57384;51.986;4.458;2023-02-28T01:38:48;3.80;71.50
38488;DHT22;57384;51.986;4.458;2023-02-28T01:41:36;3.80;71.50
38488;DHT22;57384;51.986;4.458;2023-02-28T01:47:23;3.80;71.50
38488;DHT22;57384;51.986;4.458;2023-02-28T01:50:10;3.80;71.50
38488;DHT22;57384;51.986;4.458;2023-02-28T01:52:55;3.90;71.60
38488;DHT22;57384;51.986;4.458;2023-02-28T01:55:40;3.90;71.60
38488;DHT22;57384;51.986;4.458;2023-02-28T01:58:26;3.90;71.60
38488;DHT22;57384;51.986;4.458;2023-02-28T02:01:10;3.90;71.60
38488;DHT22;57384;51.986;4.458;2023-02-28T02:03:59;3.90;71.60
38488;DHT22;57384;51.986;4.458;2023-02-28T02:06:44;3.90;71.60
38488;DHT22;57384;51.986;4.458;2023-02-28T02:09:29;4.00;71.60
38488;DHT22;57384;51.986;4.458;2023-02-28T02:12:22;4.00;71.60
38488;DHT22;57384;51.986;4.458;2023-02-28T02:17:52;4.00;71.60
38488;DHT22;57384;51.986;4.458;2023-02-28T02:20:44;4.00;71.60
38488;DHT22;57384;51.986;4.458;2023-02-28T02:23:33;4.00;71.60
38488;DHT22;57384;51.986;4.458;2023-02-28T02:43:56;4.10;71.70
38488;DHT22;57384;51.986;4.458;2023-02-28T02:46:44;4.10;71.70
38488;DHT22;57384;51.986;4.458;2023-02-28T02:49:30;4.10;71.70
38488;DHT22;57384;51.986;4.458;2023-02-28T02:52:17;4.20;71.80
38488;DHT22;57384;51.986;4.458;2023-02-28T02:55:02;4.20;71.80
38488;DHT22;57384;51.986;4.458;2023-02-28T02:57:48;4.20;71.80
38488;DHT22;57384;51.986;4.458;2023-02-28T03:00:35;4.20;71.80
38488;DHT22;57384;51.986;4.458;2023-02-28T03:03:21;4.20;71.80
38488;DHT22;57384;51.986;4.458;2023-02-28T03:06:08;4.20;71.80
38488;DHT22;57384;51.986;4.458;2023-02-28T03:08:55;4.30;71.90
38488;DHT22;57384;51.986;4.458;2023-02-28T03:11:47;4.20;71.80
38488;DHT22;57384;51.986;4.458;2023-02-28T03:20:07;4.30;71.90
38488;DHT22;57384;51.986;4.458;2023-02-28T03:26:05;4.30;71.90
38488;DHT22;57384;51.986;4.458;2023-02-28T03:28:55;4.20;71.80
38488;DHT22;57384;51.986;4.458;2023-02-28T03:31:48;4.40;71.90
38488;DHT22;57384;51.986;4.458;2023-02-28T03:34:36;4.40;72.00
38488;DHT22;57384;51.986;4.458;2023-02-28T03:37:23;4.40;71.90
38488;DHT22;57384;51.986;4.458;2023-02-28T03:40:10;4.40;71.90
38488;DHT22;57384;51.986;4.458;2023-02-28T03:42:58;4.40;72.00
38488;DHT22;57384;51.986;4.458;2023-02-28T03:45:43;4.40;72.00
38488;DHT22;57384;51.986;4.458;2023-02-28T03:48:31;4.40;72.00
38488;DHT22;57384;51.986;4.458;2023-02-28T03:54:27;4.40;72.00
38488;DHT22;57384;51.986;4.458;2023-02-28T03:57:50;4.50;72.10
38488;DHT22;57384;51.986;4.458;2023-02-28T04:00:30;4.50;72.10
38488;DHT22;57384;51.986;4.458;2023-02-28T04:03:23;4.50;72.10
38488;DHT22;57384;51.986;4.458;2023-02-28T04:06:08;4.50;72.00
38488;DHT22;57384;51.986;4.458;2023-02-28T04:08:56;4.50;72.10
38488;DHT22;57384;51.986;4.458;2023-02-28T04:11:45;4.50;72.10
38488;DHT22;57384;51.986;4.458;2023-02-28T04:14:32;4.50;72.10
38488;DHT22;57384;51.986;4.458;2023-02-28T04:17:17;4.60;72.10
38488;DHT22;57384;51.986;4.458;2023-02-28T04:20:04;4.60;72.10
38488;DHT22;57384;51.986;4.458;2023-02-28T04:22:38;4.60;72.10
38488;DHT22;57384;51.986;4.458;2023-02-28T04:25:08;4.60;72.10
38488;DHT22;57384;51.986;4.458;2023-02-28T04:27:35;4.60;72.10
38488;DHT22;57384;51.986;4.458;2023-02-28T04:30:01;4.60;72.20
38488;DHT22;57384;51.986;4.458;2023-02-28T04:32:28;4.60;72.10
38488;DHT22;57384;51.986;4.458;2023-02-28T04:34:55;4.70;72.20
38488;DHT22;57384;51.986;4.458;2023-02-28T04:37:21;4.60;72.20
38488;DHT22;57384;51.986;4.458;2023-02-28T04:39:55;4.60;72.20
38488;DHT22;57384;51.986;4.458;2023-02-28T04:42:22;4.60;72.20
38488;DHT22;57384;51.986;4.458;2023-02-28T04:44:49;4.70;72.30
38488;DHT22;57384;51.986;4.458;2023-02-28T04:47:18;4.70;72.30
38488;DHT22;57384;51.986;4.458;2023-02-28T04:49:47;4.70;72.30
38488;DHT22;57384;51.986;4.458;2023-02-28T04:52:16;4.70;72.40
38488;DHT22;57384;51.986;4.458;2023-02-28T04:54:45;4.70;72.30
38488;DHT22;57384;51.986;4.458;2023-02-28T04:57:12;4.70;72.40
38488;DHT22;57384;51.986;4.458;2023-02-28T04:59:38;4.70;72.40
38488;DHT22;57384;51.986;4.458;2023-02-28T05:02:05;4.70;72.30
38488;DHT22;57384;51.986;4.458;2023-02-28T05:04:35;4.70;72.40
38488;DHT22;57384;51.986;4.458;2023-02-28T05:07:02;4.70;72.40
38488;DHT22;57384;51.986;4.458;2023-02-28T05:09:31;4.70;72.40
38488;DHT22;57384;51.986;4.458;2023-02-28T05:12:00;4.70;72.40
38488;DHT22;57384;51.986;4.458;2023-02-28T05:14:29;4.70;72.40
38488;DHT22;57384;51.986;4.458;2023-02-28T05:16:56;4.80;72.50
38488;DHT22;57384;51.986;4.458;2023-02-28T05:19:25;4.80;72.50
38488;DHT22;57384;51.986;4.458;2023-02-28T05:21:54;4.80;72.50
38488;DHT22;57384;51.986;4.458;2023-02-28T05:24:26;4.70;72.50
38488;DHT22;57384;51.986;4.458;2023-02-28T05:26:53;4.80;72.60
38488;DHT22;57384;51.986;4.458;2023-02-28T05:29:23;4.70;72.50
38488;DHT22;57384;51.986;4.458;2023-02-28T05:31:57;4.70;72.50
38488;DHT22;57384;51.986;4.458;2023-02-28T05:34:26;4.80;72.60
38488;DHT22;57384;51.986;4.458;2023-02-28T05:36:58;4.80;72.60
38488;DHT22;57384;51.986;4.458;2023-02-28T05:39:24;4.70;72.60
38488;DHT22;57384;51.986;4.458;2023-02-28T05:42:00;4.80;72.60
38488;DHT22;57384;51.986;4.458;2023-02-28T05:44:26;4.80;72.60
38488;DHT22;57384;51.986;4.458;2023-02-28T05:47:10;4.80;72.60
38488;DHT22;57384;51.986;4.458;2023-02-28T05:49:42;4.80;72.60
38488;DHT22;57384;51.986;4.458;2023-02-28T05:52:09;4.80;72.60
38488;DHT22;57384;51.986;4.458;2023-02-28T05:54:38;4.80;72.60
38488;DHT22;57384;51.986;4.458;2023-02-28T05:57:05;4.80;72.70
38488;DHT22;57384;51.986;4.458;2023-02-28T05:59:32;4.70;72.60
38488;DHT22;57384;51.986;4.458;2023-02-28T06:01:58;4.80;72.80
38488;DHT22;57384;51.986;4.458;2023-02-28T06:04:28;4.80;72.80
38488;DHT22;57384;51.986;4.458;2023-02-28T06:06:54;4.80;72.80
38488;DHT22;57384;51.986;4.458;2023-02-28T06:09:39;4.80;72.70
38488;DHT22;57384;51.986;4.458;2023-02-28T06:12:09;4.80;72.70
38488;DHT22;57384;51.986;4.458;2023-02-28T06:14:36;4.80;72.80
38488;DHT22;57384;51.986;4.458;2023-02-28T06:17:03;4.80;72.80
38488;DHT22;57384;51.986;4.458;2023-02-28T06:19:30;4.80;72.80
38488;DHT22;57384;51.986;4.458;2023-02-28T06:21:56;4.80;72.80
38488;DHT22;57384;51.986;4.458;2023-02-28T06:24:23;4.80;72.80
38488;DHT22;57384;51.986;4.458;2023-02-28T06:26:50;4.80;72.80
38488;DHT22;57384;51.986;4.458;2023-02-28T06:29:17;4.80;72.80
38488;DHT22;57384;51.986;4.458;2023-02-28T06:31:44;4.80;72.80
38488;DHT22;57384;51.986;4.458;2023-02-28T06:34:15;4.80;72.80
38488;DHT22;57384;51.986;4.458;2023-02-28T06:36:54;4.80;72.90
38488;DHT22;57384;51.986;4.458;2023-02-28T06:39:25;4.80;72.90
38488;DHT22;57384;51.986;4.458;2023-02-28T06:45:08;4.80;73.00
38488;DHT22;57384;51.986;4.458;2023-02-28T06:48:15;4.80;72.90
38488;DHT22;57384;51.986;4.458;2023-02-28T06:54:10;4.80;73.00
38488;DHT22;57384;51.986;4.458;2023-02-28T06:56:41;4.70;72.90
38488;DHT22;57384;51.986;4.458;2023-02-28T06:59:08;4.70;73.00
38488;DHT22;57384;51.986;4.458;2023-02-28T07:01:48;4.80;73.10
38488;DHT22;57384;51.986;4.458;2023-02-28T07:04:17;4.70;73.00
38488;DHT22;57384;51.986;4.458;2023-02-28T07:09:40;4.70;73.10
38488;DHT22;57384;51.986;4.458;2023-02-28T07:12:09;4.70;73.10
38488;DHT22;57384;51.986;4.458;2023-02-28T07:14:44;4.60;73.70
38488;DHT22;57384;51.986;4.458;2023-02-28T07:17:20;4.80;73.20
38488;DHT22;57384;51.986;4.458;2023-02-28T07:19:47;4.70;73.20
38488;DHT22;57384;51.986;4.458;2023-02-28T07:22:16;4.60;73.10
38488;DHT22;57384;51.986;4.458;2023-02-28T07:24:43;4.60;73.10
38488;DHT22;57384;51.986;4.458;2023-02-28T07:27:09;4.70;73.20
38488;DHT22;57384;51.986;4.458;2023-02-28T07:29:38;4.60;73.20
38488;DHT22;57384;51.986;4.458;2023-02-28T07:32:07;4.70;73.20
38488;DHT22;57384;51.986;4.458;2023-02-28T07:34:34;4.60;73.20
38488;DHT22;57384;51.986;4.458;2023-02-28T07:37:00;4.60;73.20
38488;DHT22;57384;51.986;4.458;2023-02-28T07:39:27;4.60;73.20
38488;DHT22;57384;51.986;4.458;2023-02-28T07:41:56;4.60;73.20
38488;DHT22;57384;51.986;4.458;2023-02-28T07:44:23;4.60;73.20
38488;DHT22;57384;51.986;4.458;2023-02-28T07:46:49;4.60;73.20
38488;DHT22;57384;51.986;4.458;2023-02-28T07:49:15;4.60;73.30
38488;DHT22;57384;51.986;4.458;2023-02-28T07:51:42;4.60;73.30
38488;DHT22;57384;51.986;4.458;2023-02-28T07:54:09;4.60;73.30
38488;DHT22;57384;51.986;4.458;2023-02-28T07:56:35;4.50;73.80
38488;DHT22;57384;51.986;4.458;2023-02-28T07:59:02;4.60;73.30
38488;DHT22;57384;51.986;4.458;2023-02-28T08:01:30;4.60;73.30
38488;DHT22;57384;51.986;4.458;2023-02-28T08:03:56;4.60;73.30
38488;DHT22;57384;51.986;4.458;2023-02-28T08:06:23;4.50;73.30
38488;DHT22;57384;51.986;4.458;2023-02-28T08:08:50;4.50;73.30
38488;DHT22;57384;51.986;4.458;2023-02-28T08:11:17;4.60;73.40
38488;DHT22;57384;51.986;4.458;2023-02-28T08:13:44;4.50;73.30
38488;DHT22;57384;51.986;4.458;2023-02-28T08:16:11;4.50;73.40
38488;DHT22;57384;51.986;4.458;2023-02-28T08:18:38;4.60;73.40
38488;DHT22;57384;51.986;4.458;2023-02-28T08:21:08;4.50;73.30
38488;DHT22;57384;51.986;4.458;2023-02-28T08:23:37;4.50;73.40
38488;DHT22;57384;51.986;4.458;2023-02-28T08:26:13;4.50;73.30
38488;DHT22;57384;51.986;4.458;2023-02-28T08:28:39;4.50;73.40
38488;DHT22;57384;51.986;4.458;2023-02-28T08:31:10;4.50;73.40
38488;DHT22;57384;51.986;4.458;2023-02-28T08:33:39;4.50;73.40
38488;DHT22;57384;51.986;4.458;2023-02-28T08:36:25;4.50;73.40
38488;DHT22;57384;51.986;4.458;2023-02-28T08:38:54;4.50;73.40
38488;DHT22;57384;51.986;4.458;2023-02-28T08:41:29;4.50;73.40
38488;DHT22;57384;51.986;4.458;2023-02-28T08:43:56;4.50;73.40
38488;DHT22;57384;51.986;4.458;2023-02-28T08:46:26;4.40;73.30
38488;DHT22;57384;51.986;4.458;2023-02-28T08:48:54;4.50;73.40
38488;DHT22;57384;51.986;4.458;2023-02-28T08:51:23;4.50;73.40
38488;DHT22;57384;51.986;4.458;2023-02-28T08:54:12;4.40;73.30
38488;DHT22;57384;51.986;4.458;2023-02-28T08:56:39;4.50;73.40
38488;DHT22;57384;51.986;4.458;2023-02-28T08:59:05;4.40;73.30
38488;DHT22;57384;51.986;4.458;2023-02-28T09:01:32;4.40;73.40
38488;DHT22;57384;51.986;4.458;2023-02-28T09:03:58;4.40;73.40
38488;DHT22;57384;51.986;4.458;2023-02-28T09:06:25;4.50;73.40
38488;DHT22;57384;51.986;4.458;2023-02-28T09:08:52;4.40;73.40
38488;DHT22;57384;51.986;4.458;2023-02-28T09:11:19;4.50;73.40
38488;DHT22;57384;51.986;4.458;2023-02-28T09:13:45;4.50;73.40
38488;DHT22;57384;51.986;4.458;2023-02-28T09:16:15;4.50;73.40
38488;DHT22;57384;51.986;4.458;2023-02-28T09:18:42;4.50;73.40
38488;DHT22;57384;51.986;4.458;2023-02-28T09:21:10;4.50;73.40
38488;DHT22;57384;51.986;4.458;2023-02-28T09:23:37;4.50;73.40
38488;DHT22;57384;51.986;4.458;2023-02-28T09:26:07;4.50;73.40
38488;DHT22;57384;51.986;4.458;2023-02-28T09:28:33;4.50;73.40
38488;DHT22;57384;51.986;4.458;2023-02-28T09:31:00;4.50;73.40
38488;DHT22;57384;51.986;4.458;2023-02-28T09:33:27;4.50;73.30
38488;DHT22;57384;51.986;4.458;2023-02-28T09:35:58;4.50;73.30
38488;DHT22;57384;51.986;4.458;2023-02-28T09:38:25;4.60;73.40
38488;DHT22;57384;51.986;4.458;2023-02-28T09:41:01;4.50;73.30
38488;DHT22;57384;51.986;4.458;2023-02-28T09:43:31;4.60;73.30
38488;DHT22;57384;51.986;4.458;2023-02-28T09:48:39;4.60;73.30
38488;DHT22;57384;51.986;4.458;2023-02-28T09:53:52;4.60;73.30
38488;DHT22;57384;51.986;4.458;2023-02-28T09:56:24;4.70;73.30
38488;DHT22;57384;51.986;4.458;2023-02-28T10:01:38;4.70;73.30
38488;DHT22;57384;51.986;4.458;2023-02-28T10:06:47;4.70;73.20
38488;DHT22;57384;51.986;4.458;2023-02-28T10:09:18;4.80;73.30
38488;DHT22;57384;51.986;4.458;2023-02-28T10:11:46;4.80;73.20
38488;DHT22;57384;51.986;4.458;2023-02-28T10:14:14;4.80;73.20
38488;DHT22;57384;51.986;4.458;2023-02-28T10:16:43;4.80;73.20
38488;DHT22;57384;51.986;4.458;2023-02-28T10:19:14;4.80;73.20
38488;DHT22;57384;51.986;4.458;2023-02-28T10:22:01;4.80;73.20
38488;DHT22;57384;51.986;4.458;2023-02-28T10:24:32;4.90;73.20
38488;DHT22;57384;51.986;4.458;2023-02-28T10:27:14;4.90;73.20
38488;DHT22;57384;51.986;4.458;2023-02-28T10:29:45;4.90;73.20
38488;DHT22;57384;51.986;4.458;2023-02-28T10:32:15;5.00;73.20
38488;DHT22;57384;51.986;4.458;2023-02-28T10:34:43;5.00;73.20
38488;DHT22;57384;51.986;4.458;2023-02-28T10:37:12;5.10;73.20
38488;DHT22;57384;51.986;4.458;2023-02-28T10:39:42;5.10;73.20
38488;DHT22;57384;51.986;4.458;2023-02-28T10:42:25;5.10;73.20
38488;DHT22;57384;51.986;4.458;2023-02-28T10:45:25;5.20;73.20
38488;DHT22;57384;51.986;4.458;2023-02-28T10:53:05;5.20;73.10
38488;DHT22;57384;51.986;4.458;2023-02-28T10:55:33;5.30;73.10
38488;DHT22;57384;51.986;4.458;2023-02-28T10:58:00;5.30;73.10
38488;DHT22;57384;51.986;4.458;2023-02-28T11:00:31;5.40;73.10
38488;DHT22;57384;51.986;4.458;2023-02-28T11:02:59;5.40;73.10
38488;DHT22;57384;51.986;4.458;2023-02-28T11:05:29;5.50;73.10
38488;DHT22;57384;51.986;4.458;2023-02-28T11:07:58;5.50;73.00
38488;DHT22;57384;51.986;4.458;2023-02-28T11:10:26;5.60;73.00
38488;DHT22;57384;51.986;4.458;2023-02-28T11:12:55;5.60;72.90
38488;DHT22;57384;51.986;4.458;2023-02-28T11:15:26;5.80;72.80
38488;DHT22;57384;51.986;4.458;2023-02-28T11:18:00;5.90;72.70
38488;DHT22;57384;51.986;4.458;2023-02-28T11:20:29;6.00;72.50
38488;DHT22;57384;51.986;4.458;2023-02-28T11:22:57;6.20;72.30
38488;DHT22;57384;51.986;4.458;2023-02-28T11:27:58;6.60;71.90
38488;DHT22;57384;51.986;4.458;2023-02-28T11:30:27;6.80;71.70
38488;DHT22;57384;51.986;4.458;2023-02-28T11:32:54;7.00;71.50
38488;DHT22;57384;51.986;4.458;2023-02-28T11:37:50;7.40;71.20
38488;DHT22;57384;51.986;4.458;2023-02-28T11:40:22;7.60;71.10
38488;DHT22;57384;51.986;4.458;2023-02-28T11:42:57;7.80;71.10
38488;DHT22;57384;51.986;4.458;2023-02-28T11:56:03;8.60;70.80
38488;DHT22;57384;51.986;4.458;2023-02-28T11:58:44;8.80;70.90
38488;DHT22;57384;51.986;4.458;2023-02-28T12:03:49;9.00;71.00
38488;DHT22;57384;51.986;4.458;2023-02-28T12:09:19;9.20;71.20
38488;DHT22;57384;51.986;4.458;2023-02-28T12:11:56;9.20;71.20
38488;DHT22;57384;51.986;4.458;2023-02-28T12:20:05;9.50;71.40
38488;DHT22;57384;51.986;4.458;2023-02-28T12:22:47;9.60;71.40
38488;DHT22;57384;51.986;4.458;2023-02-28T12:25:21;9.70;71.30
38488;DHT22;57384;51.986;4.458;2023-02-28T12:27:50;9.80;71.30
38488;DHT22;57384;51.986;4.458;2023-02-28T12:32:51;10.10;71.20
38488;DHT22;57384;51.986;4.458;2023-02-28T12:35:44;10.30;71.10
38488;DHT22;57384;51.986;4.458;2023-02-28T12:38:12;10.50;71.00
38488;DHT22;57384;51.986;4.458;2023-02-28T12:43:19;11.00;70.80
38488;DHT22;57384;51.986;4.458;2023-02-28T12:45:53;11.20;70.50
38488;DHT22;57384;51.986;4.458;2023-02-28T12:48:24;11.40;70.40
38488;DHT22;57384;51.986;4.458;2023-02-28T12:50:52;11.70;70.40
38488;DHT22;57384;51.986;4.458;2023-02-28T12:53:31;11.90;70.20
38488;DHT22;57384;51.986;4.458;2023-02-28T12:56:09;12.10;70.10
38488;DHT22;57384;51.986;4.458;2023-02-28T12:58:47;12.40;70.00
38488;DHT22;57384;51.986;4.458;2023-02-28T13:06:45;13.10;69.90
38488;DHT22;57384;51.986;4.458;2023-02-28T13:09:17;13.30;69.70
38488;DHT22;57384;51.986;4.458;2023-02-28T13:11:47;13.50;69.80
38488;DHT22;57384;51.986;4.458;2023-02-28T13:16:51;13.90;69.80
38488;DHT22;57384;51.986;4.458;2023-02-28T13:19:27;14.10;69.70
38488;DHT22;57384;51.986;4.458;2023-02-28T13:21:54;14.20;69.60
38488;DHT22;57384;51.986;4.458;2023-02-28T13:24:37;14.40;69.70
38488;DHT22;57384;51.986;4.458;2023-02-28T13:29:33;14.40;69.80
38488;DHT22;57384;51.986;4.458;2023-02-28T13:34:30;14.40;70.10
38488;DHT22;57384;51.986;4.458;2023-02-28T13:39:56;14.30;70.30
38488;DHT22;57384;51.986;4.458;2023-02-28T13:45:29;14.00;71.00
38488;DHT22;57384;51.986;4.458;2023-02-28T13:48:26;13.80;71.30
38488;DHT22;57384;51.986;4.458;2023-02-28T13:50:57;13.60;71.40
38488;DHT22;57384;51.986;4.458;2023-02-28T13:59:22;13.00;72.20
38488;DHT22;57384;51.986;4.458;2023-02-28T14:07:23;12.60;72.20
38488;DHT22;57384;51.986;4.458;2023-02-28T14:10:30;12.50;72.00
38488;DHT22;57384;51.986;4.458;2023-02-28T14:15:47;12.20;71.80
38488;DHT22;57384;51.986;4.458;2023-02-28T14:18:21;12.10;71.80
38488;DHT22;57384;51.986;4.458;2023-02-28T14:20:49;11.90;71.90
38488;DHT22;57384;51.986;4.458;2023-02-28T14:23:18;11.80;71.80
38488;DHT22;57384;51.986;4.458;2023-02-28T14:38:56;11.10;71.40
38488;DHT22;57384;51.986;4.458;2023-02-28T14:41:30;11.00;71.20
38488;DHT22;57384;51.986;4.458;2023-02-28T14:44:00;10.80;71.10
38488;DHT22;57384;51.986;4.458;2023-02-28T14:46:37;10.70;71.10
38488;DHT22;57384;51.986;4.458;2023-02-28T14:49:05;10.60;71.10
38488;DHT22;57384;51.986;4.458;2023-02-28T14:51:37;10.50;70.90
38488;DHT22;57384;51.986;4.458;2023-02-28T14:54:04;10.40;71.60
38488;DHT22;57384;51.986;4.458;2023-02-28T14:56:35;10.30;70.90
38488;DHT22;57384;51.986;4.458;2023-02-28T14:59:05;10.20;70.90
38488;DHT22;57384;51.986;4.458;2023-02-28T15:01:44;10.20;71.00
38488;DHT22;57384;51.986;4.458;2023-02-28T15:04:12;10.00;71.10
38488;DHT22;57384;51.986;4.458;2023-02-28T15:06:45;9.90;71.20
38488;DHT22;57384;51.986;4.458;2023-02-28T15:09:17;9.80;71.10
38488;DHT22;57384;51.986;4.458;2023-02-28T15:11:47;9.80;71.20
38488;DHT22;57384;51.986;4.458;2023-02-28T15:14:18;9.60;71.20
38488;DHT22;57384;51.986;4.458;2023-02-28T15:16:45;9.60;71.30
38488;DHT22;57384;51.986;4.458;2023-02-28T15:19:28;9.50;71.20
38488;DHT22;57384;51.986;4.458;2023-02-28T15:22:03;9.50;71.20
38488;DHT22;57384;51.986;4.458;2023-02-28T15:27:02;9.30;71.10
38488;DHT22;57384;51.986;4.458;2023-02-28T15:29:32;9.20;71.00
38488;DHT22;57384;51.986;4.458;2023-02-28T15:32:03;9.20;71.00
38488;DHT22;57384;51.986;4.458;2023-02-28T15:34:37;9.10;71.00
38488;DHT22;57384;51.986;4.458;2023-02-28T15:39:49;8.90;71.00
38488;DHT22;57384;51.986;4.458;2023-02-28T15:42:20;8.80;70.90
38488;DHT22;57384;51.986;4.458;2023-02-28T15:44:47;8.80;71.00
38488;DHT22;57384;51.986;4.458;2023-02-28T15:49:50;8.60;70.80
38488;DHT22;57384;51.986;4.458;2023-02-28T15:52:22;8.60;70.90
38488;DHT22;57384;51.986;4.458;2023-02-28T15:54:50;8.50;70.90
38488;DHT22;57384;51.986;4.458;2023-02-28T15:57:18;8.50;70.80
38488;DHT22;57384;51.986;4.458;2023-02-28T15:59:51;8.40;70.80
38488;DHT22;57384;51.986;4.458;2023-02-28T16:02:19;8.40;70.80
38488;DHT22;57384;51.986;4.458;2023-02-28T16:07:32;8.20;70.30
38488;DHT22;57384;51.986;4.458;2023-02-28T16:09:59;8.20;70.20
38488;DHT22;57384;51.986;4.458;2023-02-28T16:12:27;8.10;70.10
38488;DHT22;57384;51.986;4.458;2023-02-28T16:14:54;8.10;70.00
38488;DHT22;57384;51.986;4.458;2023-02-28T16:17:23;8.00;70.00
38488;DHT22;57384;51.986;4.458;2023-02-28T16:19:50;8.00;69.90
38488;DHT22;57384;51.986;4.458;2023-02-28T16:22:17;8.00;69.90
38488;DHT22;57384;51.986;4.458;2023-02-28T16:24:43;7.90;69.80
38488;DHT22;57384;51.986;4.458;2023-02-28T16:27:14;7.80;69.70
38488;DHT22;57384;51.986;4.458;2023-02-28T16:29:42;7.80;69.70
38488;DHT22;57384;51.986;4.458;2023-02-28T16:32:10;7.80;69.70
38488;DHT22;57384;51.986;4.458;2023-02-28T16:34:37;7.70;69.60
38488;DHT22;57384;51.986;4.458;2023-02-28T16:37:04;7.70;70.20
38488;DHT22;57384;51.986;4.458;2023-02-28T16:39:31;7.60;69.50
38488;DHT22;57384;51.986;4.458;2023-02-28T16:41:57;7.60;69.50
38488;DHT22;57384;51.986;4.458;2023-02-28T16:44:27;7.50;69.50
38488;DHT22;57384;51.986;4.458;2023-02-28T16:46:54;7.50;69.50
38488;DHT22;57384;51.986;4.458;2023-02-28T16:49:21;7.40;69.50
38488;DHT22;57384;51.986;4.458;2023-02-28T16:51:47;7.40;69.60
38488;DHT22;57384;51.986;4.458;2023-02-28T16:54:14;7.40;69.70
38488;DHT22;57384;51.986;4.458;2023-02-28T16:56:42;7.30;69.70
38488;DHT22;57384;51.986;4.458;2023-02-28T16:59:10;7.30;69.60
38488;DHT22;57384;51.986;4.458;2023-02-28T17:01:37;7.20;69.50
38488;DHT22;57384;51.986;4.458;2023-02-28T17:04:03;7.20;69.60
38488;DHT22;57384;51.986;4.458;2023-02-28T17:06:30;7.10;69.60
38488;DHT22;57384;51.986;4.458;2023-02-28T17:08:57;7.10;69.60
38488;DHT22;57384;51.986;4.458;2023-02-28T17:11:24;7.00;69.60
38488;DHT22;57384;51.986;4.458;2023-02-28T17:13:51;7.00;69.60
38488;DHT22;57384;51.986;4.458;2023-02-28T17:16:20;7.00;69.70
38488;DHT22;57384;51.986;4.458;2023-02-28T17:18:49;7.00;69.80
38488;DHT22;57384;51.986;4.458;2023-02-28T17:21:16;6.80;69.70
38488;DHT22;57384;51.986;4.458;2023-02-28T17:23:43;6.90;69.80
38488;DHT22;57384;51.986;4.458;2023-02-28T17:26:11;6.80;69.80
38488;DHT22;57384;51.986;4.458;2023-02-28T17:28:38;6.70;69.80
38488;DHT22;57384;51.986;4.458;2023-02-28T17:31:05;6.70;69.80
38488;DHT22;57384;51.986;4.458;2023-02-28T17:33:31;6.70;69.90
38488;DHT22;57384;51.986;4.458;2023-02-28T17:35:58;6.80;70.00
38488;DHT22;57384;51.986;4.458;2023-02-28T17:38:24;6.50;69.90
38488;DHT22;57384;51.986;4.458;2023-02-28T17:40:51;6.50;69.90
38488;DHT22;57384;51.986;4.458;2023-02-28T17:43:17;6.50;69.90
38488;DHT22;57384;51.986;4.458;2023-02-28T17:45:45;6.50;69.90
38488;DHT22;57384;51.986;4.458;2023-02-28T17:48:11;6.40;69.90
38488;DHT22;57384;51.986;4.458;2023-02-28T17:50:38;6.40;70.00
38488;DHT22;57384;51.986;4.458;2023-02-28T17:53:06;6.30;70.00
38488;DHT22;57384;51.986;4.458;2023-02-28T17:55:32;6.30;70.00
38488;DHT22;57384;51.986;4.458;2023-02-28T17:57:59;6.30;70.10
38488;DHT22;57384;51.986;4.458;2023-02-28T18:00:25;6.20;70.00
38488;DHT22;57384;51.986;4.458;2023-02-28T18:02:52;6.20;70.10
38488;DHT22;57384;51.986;4.458;2023-02-28T18:05:18;6.10;70.10
38488;DHT22;57384;51.986;4.458;2023-02-28T18:07:45;6.10;70.10
38488;DHT22;57384;51.986;4.458;2023-02-28T18:10:15;6.10;70.20
38488;DHT22;57384;51.986;4.458;2023-02-28T18:12:42;6.00;70.20
38488;DHT22;57384;51.986;4.458;2023-02-28T18:15:09;6.10;70.30
38488;DHT22;57384;51.986;4.458;2023-02-28T18:17:35;6.00;70.30
38488;DHT22;57384;51.986;4.458;2023-02-28T18:20:02;5.90;70.20
38488;DHT22;57384;51.986;4.458;2023-02-28T18:22:28;5.90;70.30
38488;DHT22;57384;51.986;4.458;2023-02-28T18:24:55;5.80;70.30
38488;DHT22;57384;51.986;4.458;2023-02-28T18:27:21;5.80;70.30
38488;DHT22;57384;51.986;4.458;2023-02-28T18:29:48;5.80;70.30
38488;DHT22;57384;51.986;4.458;2023-02-28T18:32:14;5.70;70.30
38488;DHT22;57384;51.986;4.458;2023-02-28T18:34:41;5.70;70.30
38488;DHT22;57384;51.986;4.458;2023-02-28T18:37:07;5.70;70.40
38488;DHT22;57384;51.986;4.458;2023-02-28T18:39:34;5.70;70.40
38488;DHT22;57384;51.986;4.458;2023-02-28T18:42:00;5.60;70.40
38488;DHT22;57384;51.986;4.458;2023-02-28T18:44:27;5.60;70.40
38488;DHT22;57384;51.986;4.458;2023-02-28T18:46:53;5.60;70.40
38488;DHT22;57384;51.986;4.458;2023-02-28T18:49:20;5.50;70.40
38488;DHT22;57384;51.986;4.458;2023-02-28T18:51:47;5.50;70.50
38488;DHT22;57384;51.986;4.458;2023-02-28T18:54:14;5.40;70.50